sensor_id;sensor_type;location;lat;lon;timestamp;temperature;humidity
17370;DHT22;8802;52.402;4.920;2023-05-10T00:01:26;16.60;99.90
17370;DHT22;8802;52.402;4.920;2023-05-10T00:03:53;16.60;99.90
17370;DHT22;8802;52.402;4.920;2023-05-10T00:06:20;16.60;99.90
17370;DHT22;8802;52.402;4.920;2023-05-10T00:08:47;16.50;99.90
17370;DHT22;8802;52.402;4.920;2023-05-10T00:11:14;16.50;99.90
17370;DHT22;8802;52.402;4.920;2023-05-10T00:13:42;16.60;99.90
17370;DHT22;8802;52.402;4.920;2023-05-10T00:16:09;16.60;99.90
17370;DHT22;8802;52.402;4.920;2023-05-10T00:18:37;16.60;99.90
17370;DHT22;8802;52.402;4.920;2023-05-10T00:21:04;16.60;99.90
17370;DHT22;8802;52.402;4.920;2023-05-10T00:23:31;16.50;99.90
17370;DHT22;8802;52.402;4.920;2023-05-10T00:25:58;16.50;99.90
17370;DHT22;8802;52.402;4.920;2023-05-10T00:28:25;16.50;99.90
17370;DHT22;8802;52.402;4.920;2023-05-10T00:30:55;16.50;99.90
17370;DHT22;8802;52.402;4.920;2023-05-10T00:33:22;16.50;99.90
17370;DHT22;8802;52.402;4.920;2023-05-10T00:35:48;16.40;99.90
17370;DHT22;8802;52.402;4.920;2023-05-10T00:38:15;16.40;99.90
17370;DHT22;8802;52.402;4.920;2023-05-10T00:40:42;16.50;99.90
17370;DHT22;8802;52.402;4.920;2023-05-10T00:43:09;16.50;99.90
17370;DHT22;8802;52.402;4.920;2023-05-10T00:45:37;16.40;99.90
17370;DHT22;8802;52.402;4.920;2023-05-10T00:48:05;16.50;99.90
17370;DHT22;8802;52.402;4.920;2023-05-10T00:50:32;16.40;99.90
17370;DHT22;8802;52.402;4.920;2023-05-10T00:53:01;16.40;99.90
17370;DHT22;8802;52.402;4.920;2023-05-10T00:55:28;16.40;99.90
17370;DHT22;8802;52.402;4.920;2023-05-10T00:57:55;16.40;99.90
17370;DHT22;8802;52.402;4.920;2023-05-10T01:00:22;16.40;99.90
17370;DHT22;8802;52.402;4.920;2023-05-10T01:02:49;16.40;99.90
17370;DHT22;8802;52.402;4.920;2023-05-10T01:05:17;16.40;99.90
17370;DHT22;8802;52.402;4.920;2023-05-10T01:07:44;16.40;99.90
17370;DHT22;8802;52.402;4.920;2023-05-10T01:10:11;16.40;99.90
17370;DHT22;8802;52.402;4.920;2023-05-10T01:12:41;16.40;99.90
17370;DHT22;8802;52.402;4.920;2023-05-10T01:15:10;16.40;99.90
17370;DHT22;8802;52.402;4.920;2023-05-10T01:17:38;16.40;99.90
17370;DHT22;8802;52.402;4.920;2023-05-10T01:20:07;16.40;99.90
17370;DHT22;8802;52.402;4.920;2023-05-10T01:26:13;16.40;99.90
17370;DHT22;8802;52.402;4.920;2023-05-10T01:29:06;16.40;99.90
17370;DHT22;8802;52.402;4.920;2023-05-10T01:31:59;16.40;99.90
17370;DHT22;8802;52.402;4.920;2023-05-10T01:34:34;16.40;99.90
17370;DHT22;8802;52.402;4.920;2023-05-10T01:37:06;16.40;99.90
17370;DHT22;8802;52.402;4.920;2023-05-10T01:39:41;16.40;99.90
17370;DHT22;8802;52.402;4.920;2023-05-10T01:42:11;16.40;99.90
17370;DHT22;8802;52.402;4.920;2023-05-10T01:44:42;16.40;99.90
17370;DHT22;8802;52.402;4.920;2023-05-10T01:47:17;16.40;99.90
17370;DHT22;8802;52.402;4.920;2023-05-10T01:49:50;16.40;99.90
17370;DHT22;8802;52.402;4.920;2023-05-10T01:52:18;16.40;99.90
17370;DHT22;8802;52.402;4.920;2023-05-10T01:54:50;16.40;99.90
17370;DHT22;8802;52.402;4.920;2023-05-10T01:57:20;16.40;99.90
17370;DHT22;8802;52.402;4.920;2023-05-10T01:59:50;16.40;99.90
17370;DHT22;8802;52.402;4.920;2023-05-10T02:02:20;16.40;99.90
17370;DHT22;8802;52.402;4.920;2023-05-10T02:04:49;16.40;99.90
17370;DHT22;8802;52.402;4.920;2023-05-10T02:07:17;16.40;99.90
17370;DHT22;8802;52.402;4.920;2023-05-10T02:09:45;16.40;99.90
17370;DHT22;8802;52.402;4.920;2023-05-10T02:12:14;16.40;99.90
17370;DHT22;8802;52.402;4.920;2023-05-10T02:14:41;16.40;99.90
17370;DHT22;8802;52.402;4.920;2023-05-10T02:17:09;16.40;99.90
17370;DHT22;8802;52.402;4.920;2023-05-10T02:19:40;16.40;99.90
17370;DHT22;8802;52.402;4.920;2023-05-10T02:22:09;16.40;99.90
17370;DHT22;8802;52.402;4.920;2023-05-10T02:24:36;16.40;99.90
17370;DHT22;8802;52.402;4.920;2023-05-10T02:27:04;16.40;99.90
17370;DHT22;8802;52.402;4.920;2023-05-10T02:29:33;16.40;99.90
17370;DHT22;8802;52.402;4.920;2023-05-10T02:32:01;16.40;99.90
17370;DHT22;8802;52.402;4.920;2023-05-10T02:34:30;16.40;99.90
17370;DHT22;8802;52.402;4.920;2023-05-10T02:36:59;16.40;99.90
17370;DHT22;8802;52.402;4.920;2023-05-10T02:39:28;16.40;99.90
17370;DHT22;8802;52.402;4.920;2023-05-10T02:41:57;16.40;99.90
17370;DHT22;8802;52.402;4.920;2023-05-10T02:44:27;16.50;99.90
17370;DHT22;8802;52.402;4.920;2023-05-10T02:46:56;16.40;99.90
17370;DHT22;8802;52.402;4.920;2023-05-10T02:49:24;16.40;99.90
17370;DHT22;8802;52.402;4.920;2023-05-10T02:51:54;16.40;99.90
17370;DHT22;8802;52.402;4.920;2023-05-10T02:54:27;16.40;99.90
17370;DHT22;8802;52.402;4.920;2023-05-10T02:56:58;16.50;99.90
17370;DHT22;8802;52.402;4.920;2023-05-10T02:59:26;16.40;99.90
17370;DHT22;8802;52.402;4.920;2023-05-10T03:01:53;16.40;99.90
17370;DHT22;8802;52.402;4.920;2023-05-10T03:04:20;16.30;99.90
17370;DHT22;8802;52.402;4.920;2023-05-10T03:06:47;16.40;99.90
17370;DHT22;8802;52.402;4.920;2023-05-10T03:09:14;16.40;99.90
17370;DHT22;8802;52.402;4.920;2023-05-10T03:11:52;16.30;99.90
17370;DHT22;8802;52.402;4.920;2023-05-10T03:14:30;16.30;99.90
17370;DHT22;8802;52.402;4.920;2023-05-10T03:17:06;16.30;99.90
17370;DHT22;8802;52.402;4.920;2023-05-10T03:19:43;16.30;99.90
17370;DHT22;8802;52.402;4.920;2023-05-10T03:22:11;16.30;99.90
17370;DHT22;8802;52.402;4.920;2023-05-10T03:24:41;16.30;99.90
17370;DHT22;8802;52.402;4.920;2023-05-10T03:27:10;16.30;99.90
17370;DHT22;8802;52.402;4.920;2023-05-10T03:29:39;16.30;99.90
17370;DHT22;8802;52.402;4.920;2023-05-10T03:32:06;16.30;99.90
17370;DHT22;8802;52.402;4.920;2023-05-10T03:34:33;16.30;99.90
17370;DHT22;8802;52.402;4.920;2023-05-10T03:36:59;16.30;99.90
17370;DHT22;8802;52.402;4.920;2023-05-10T03:39:26;16.30;99.90
17370;DHT22;8802;52.402;4.920;2023-05-10T03:41:53;16.20;99.90
17370;DHT22;8802;52.402;4.920;2023-05-10T03:44:21;16.20;99.90
17370;DHT22;8802;52.402;4.920;2023-05-10T03:46:48;16.20;99.90
17370;DHT22;8802;52.402;4.920;2023-05-10T03:49:15;16.20;99.90
17370;DHT22;8802;52.402;4.920;2023-05-10T03:51:42;16.20;99.90
17370;DHT22;8802;52.402;4.920;2023-05-10T03:54:09;16.20;99.90
17370;DHT22;8802;52.402;4.920;2023-05-10T03:56:35;16.20;99.90
17370;DHT22;8802;52.402;4.920;2023-05-10T03:59:02;16.20;99.90
17370;DHT22;8802;52.402;4.920;2023-05-10T04:01:34;16.20;99.90
17370;DHT22;8802;52.402;4.920;2023-05-10T04:04:01;16.10;99.90
17370;DHT22;8802;52.402;4.920;2023-05-10T04:06:27;16.10;99.90
17370;DHT22;8802;52.402;4.920;2023-05-10T04:08:54;16.10;99.90
17370;DHT22;8802;52.402;4.920;2023-05-10T04:11:21;16.10;99.90
17370;DHT22;8802;52.402;4.920;2023-05-10T04:13:50;16.10;99.90
17370;DHT22;8802;52.402;4.920;2023-05-10T04:16:16;16.10;99.90
17370;DHT22;8802;52.402;4.920;2023-05-10T04:18:45;16.10;99.90
17370;DHT22;8802;52.402;4.920;2023-05-10T04:21:12;16.10;99.90
17370;DHT22;8802;52.402;4.920;2023-05-10T04:23:39;16.10;99.90
17370;DHT22;8802;52.402;4.920;2023-05-10T04:26:05;16.10;99.90
17370;DHT22;8802;52.402;4.920;2023-05-10T04:28:32;16.10;99.90
17370;DHT22;8802;52.402;4.920;2023-05-10T04:31:03;16.00;99.90
17370;DHT22;8802;52.402;4.920;2023-05-10T04:33:30;16.00;99.90
17370;DHT22;8802;52.402;4.920;2023-05-10T04:35:59;16.00;99.90
17370;DHT22;8802;52.402;4.920;2023-05-10T04:38:27;16.00;99.90
17370;DHT22;8802;52.402;4.920;2023-05-10T04:40:54;16.00;99.90
17370;DHT22;8802;52.402;4.920;2023-05-10T04:43:21;16.00;99.90
17370;DHT22;8802;52.402;4.920;2023-05-10T04:45:47;16.00;99.90
17370;DHT22;8802;52.402;4.920;2023-05-10T04:48:15;16.00;99.90
17370;DHT22;8802;52.402;4.920;2023-05-10T04:50:42;16.00;99.90
17370;DHT22;8802;52.402;4.920;2023-05-10T04:53:10;16.00;99.90
17370;DHT22;8802;52.402;4.920;2023-05-10T04:55:37;16.00;99.90
17370;DHT22;8802;52.402;4.920;2023-05-10T04:58:04;15.90;99.90
17370;DHT22;8802;52.402;4.920;2023-05-10T05:00:31;16.10;99.90
17370;DHT22;8802;52.402;4.920;2023-05-10T05:02:57;16.00;99.90
17370;DHT22;8802;52.402;4.920;2023-05-10T05:05:24;16.10;99.90
17370;DHT22;8802;52.402;4.920;2023-05-10T05:07:51;16.00;99.90
17370;DHT22;8802;52.402;4.920;2023-05-10T05:10:19;16.10;99.90
17370;DHT22;8802;52.402;4.920;2023-05-10T05:12:46;16.00;99.90
17370;DHT22;8802;52.402;4.920;2023-05-10T05:15:13;16.00;99.90
17370;DHT22;8802;52.402;4.920;2023-05-10T05:17:42;16.10;99.90
17370;DHT22;8802;52.402;4.920;2023-05-10T05:20:09;16.10;99.90
17370;DHT22;8802;52.402;4.920;2023-05-10T05:22:36;16.10;99.90
17370;DHT22;8802;52.402;4.920;2023-05-10T05:25:04;16.10;99.90
17370;DHT22;8802;52.402;4.920;2023-05-10T05:27:32;16.10;99.90
17370;DHT22;8802;52.402;4.920;2023-05-10T05:29:59;16.10;99.90
17370;DHT22;8802;52.402;4.920;2023-05-10T05:32:26;16.10;99.90
17370;DHT22;8802;52.402;4.920;2023-05-10T05:34:53;16.10;99.90
17370;DHT22;8802;52.402;4.920;2023-05-10T05:37:20;16.10;99.90
17370;DHT22;8802;52.402;4.920;2023-05-10T05:39:48;16.10;99.90
17370;DHT22;8802;52.402;4.920;2023-05-10T05:42:15;16.10;99.90
17370;DHT22;8802;52.402;4.920;2023-05-10T05:44:45;16.10;99.90
17370;DHT22;8802;52.402;4.920;2023-05-10T05:47:12;16.10;99.90
17370;DHT22;8802;52.402;4.920;2023-05-10T05:49:39;16.10;99.90
17370;DHT22;8802;52.402;4.920;2023-05-10T05:52:06;16.10;99.90
17370;DHT22;8802;52.402;4.920;2023-05-10T05:54:32;16.20;99.90
17370;DHT22;8802;52.402;4.920;2023-05-10T05:57:00;16.10;99.90
17370;DHT22;8802;52.402;4.920;2023-05-10T05:59:27;16.20;99.90
17370;DHT22;8802;52.402;4.920;2023-05-10T06:01:55;16.20;99.90
17370;DHT22;8802;52.402;4.920;2023-05-10T06:04:22;16.20;99.90
17370;DHT22;8802;52.402;4.920;2023-05-10T06:06:49;16.20;99.90
17370;DHT22;8802;52.402;4.920;2023-05-10T06:09:16;16.20;99.90
17370;DHT22;8802;52.402;4.920;2023-05-10T06:11:43;16.20;99.90
17370;DHT22;8802;52.402;4.920;2023-05-10T06:14:09;16.20;99.90
17370;DHT22;8802;52.402;4.920;2023-05-10T06:16:36;16.20;99.90
17370;DHT22;8802;52.402;4.920;2023-05-10T06:19:04;16.20;99.90
17370;DHT22;8802;52.402;4.920;2023-05-10T06:21:31;16.20;99.90
17370;DHT22;8802;52.402;4.920;2023-05-10T06:23:58;16.20;99.90
17370;DHT22;8802;52.402;4.920;2023-05-10T06:26:25;16.20;99.90
17370;DHT22;8802;52.402;4.920;2023-05-10T06:28:52;16.20;99.90
17370;DHT22;8802;52.402;4.920;2023-05-10T06:31:19;16.20;99.90
17370;DHT22;8802;52.402;4.920;2023-05-10T06:33:46;16.20;99.90
17370;DHT22;8802;52.402;4.920;2023-05-10T06:36:14;16.20;99.90
17370;DHT22;8802;52.402;4.920;2023-05-10T06:38:41;16.20;99.90
17370;DHT22;8802;52.402;4.920;2023-05-10T06:41:08;16.20;99.90
17370;DHT22;8802;52.402;4.920;2023-05-10T06:43:35;16.20;99.90
17370;DHT22;8802;52.402;4.920;2023-05-10T06:46:05;16.20;99.90
17370;DHT22;8802;52.402;4.920;2023-05-10T06:48:32;16.20;99.90
17370;DHT22;8802;52.402;4.920;2023-05-10T06:51:01;16.20;99.90
17370;DHT22;8802;52.402;4.920;2023-05-10T06:53:29;16.30;99.90
17370;DHT22;8802;52.402;4.920;2023-05-10T06:55:56;16.30;99.90
17370;DHT22;8802;52.402;4.920;2023-05-10T06:58:23;16.30;99.90
17370;DHT22;8802;52.402;4.920;2023-05-10T07:00:49;16.30;99.90
17370;DHT22;8802;52.402;4.920;2023-05-10T07:03:16;16.30;99.90
17370;DHT22;8802;52.402;4.920;2023-05-10T07:05:43;16.40;99.90
17370;DHT22;8802;52.402;4.920;2023-05-10T07:08:10;16.40;99.90
17370;DHT22;8802;52.402;4.920;2023-05-10T07:10:38;16.40;99.90
17370;DHT22;8802;52.402;4.920;2023-05-10T07:13:05;16.50;99.90
17370;DHT22;8802;52.402;4.920;2023-05-10T07:15:32;16.50;99.90
17370;DHT22;8802;52.402;4.920;2023-05-10T07:17:59;16.50;99.90
17370;DHT22;8802;52.402;4.920;2023-05-10T07:20:25;16.60;99.90
17370;DHT22;8802;52.402;4.920;2023-05-10T07:22:52;16.60;99.90
17370;DHT22;8802;52.402;4.920;2023-05-10T07:25:19;16.60;99.90
17370;DHT22;8802;52.402;4.920;2023-05-10T07:27:47;16.70;99.90
17370;DHT22;8802;52.402;4.920;2023-05-10T07:30:14;16.70;99.90
17370;DHT22;8802;52.402;4.920;2023-05-10T07:32:41;16.70;99.90
17370;DHT22;8802;52.402;4.920;2023-05-10T07:35:09;16.70;99.90
17370;DHT22;8802;52.402;4.920;2023-05-10T07:37:35;16.70;99.90
17370;DHT22;8802;52.402;4.920;2023-05-10T07:40:03;16.80;99.90
17370;DHT22;8802;52.402;4.920;2023-05-10T07:42:30;16.80;99.90
17370;DHT22;8802;52.402;4.920;2023-05-10T07:44:58;16.80;99.90
17370;DHT22;8802;52.402;4.920;2023-05-10T07:47:25;16.80;99.90
17370;DHT22;8802;52.402;4.920;2023-05-10T07:49:51;16.80;99.90
17370;DHT22;8802;52.402;4.920;2023-05-10T07:52:18;16.80;99.90
17370;DHT22;8802;52.402;4.920;2023-05-10T07:54:45;16.90;99.90
17370;DHT22;8802;52.402;4.920;2023-05-10T07:57:12;16.90;99.90
17370;DHT22;8802;52.402;4.920;2023-05-10T07:59:43;16.90;99.90
17370;DHT22;8802;52.402;4.920;2023-05-10T08:02:11;17.00;99.90
17370;DHT22;8802;52.402;4.920;2023-05-10T08:04:38;17.00;99.90
17370;DHT22;8802;52.402;4.920;2023-05-10T08:07:05;17.10;99.90
17370;DHT22;8802;52.402;4.920;2023-05-10T08:09:31;17.10;99.90
17370;DHT22;8802;52.402;4.920;2023-05-10T08:11:58;17.10;99.90
17370;DHT22;8802;52.402;4.920;2023-05-10T08:14:26;17.20;99.90
17370;DHT22;8802;52.402;4.920;2023-05-10T08:16:53;17.20;99.90
17370;DHT22;8802;52.402;4.920;2023-05-10T08:19:22;17.30;99.90
17370;DHT22;8802;52.402;4.920;2023-05-10T08:21:49;17.30;99.90
17370;DHT22;8802;52.402;4.920;2023-05-10T08:24:16;17.30;99.90
17370;DHT22;8802;52.402;4.920;2023-05-10T08:26:43;17.30;99.90
17370;DHT22;8802;52.402;4.920;2023-05-10T08:29:10;17.30;99.90
17370;DHT22;8802;52.402;4.920;2023-05-10T08:31:36;17.30;99.90
17370;DHT22;8802;52.402;4.920;2023-05-10T08:34:03;17.40;99.90
17370;DHT22;8802;52.402;4.920;2023-05-10T08:36:31;17.40;99.90
17370;DHT22;8802;52.402;4.920;2023-05-10T08:38:58;17.40;99.90
17370;DHT22;8802;52.402;4.920;2023-05-10T08:41:25;17.40;99.90
17370;DHT22;8802;52.402;4.920;2023-05-10T08:43:53;17.40;99.90
17370;DHT22;8802;52.402;4.920;2023-05-10T08:46:21;17.40;99.90
17370;DHT22;8802;52.402;4.920;2023-05-10T08:48:49;17.50;99.90
17370;DHT22;8802;52.402;4.920;2023-05-10T08:51:18;17.50;99.90
17370;DHT22;8802;52.402;4.920;2023-05-10T08:53:48;17.60;99.90
17370;DHT22;8802;52.402;4.920;2023-05-10T08:56:15;17.60;99.90
17370;DHT22;8802;52.402;4.920;2023-05-10T08:58:43;17.70;99.90
17370;DHT22;8802;52.402;4.920;2023-05-10T09:01:11;17.70;99.90
17370;DHT22;8802;52.402;4.920;2023-05-10T09:03:39;17.80;99.90
17370;DHT22;8802;52.402;4.920;2023-05-10T09:06:06;17.80;99.90
17370;DHT22;8802;52.402;4.920;2023-05-10T09:08:33;17.90;99.90
17370;DHT22;8802;52.402;4.920;2023-05-10T09:11:02;18.00;99.90
17370;DHT22;8802;52.402;4.920;2023-05-10T09:13:29;18.00;99.90
17370;DHT22;8802;52.402;4.920;2023-05-10T09:15:57;18.10;99.90
17370;DHT22;8802;52.402;4.920;2023-05-10T09:18:24;18.20;99.90
17370;DHT22;8802;52.402;4.920;2023-05-10T09:20:51;18.20;99.90
17370;DHT22;8802;52.402;4.920;2023-05-10T09:23:18;18.30;99.90
17370;DHT22;8802;52.402;4.920;2023-05-10T09:25:45;18.40;99.90
17370;DHT22;8802;52.402;4.920;2023-05-10T09:28:13;18.40;99.90
17370;DHT22;8802;52.402;4.920;2023-05-10T09:30:40;18.50;99.90
17370;DHT22;8802;52.402;4.920;2023-05-10T09:33:08;18.50;99.90
17370;DHT22;8802;52.402;4.920;2023-05-10T09:35:35;18.50;99.90
17370;DHT22;8802;52.402;4.920;2023-05-10T09:38:04;18.60;99.90
17370;DHT22;8802;52.402;4.920;2023-05-10T09:40:31;18.60;99.90
17370;DHT22;8802;52.402;4.920;2023-05-10T09:42:59;18.60;99.90
17370;DHT22;8802;52.402;4.920;2023-05-10T09:45:29;18.70;99.90
17370;DHT22;8802;52.402;4.920;2023-05-10T09:47:57;18.70;99.90
17370;DHT22;8802;52.402;4.920;2023-05-10T09:50:25;18.80;99.90
17370;DHT22;8802;52.402;4.920;2023-05-10T09:52:54;18.80;99.90
17370;DHT22;8802;52.402;4.920;2023-05-10T09:55:25;18.80;99.90
17370;DHT22;8802;52.402;4.920;2023-05-10T09:57:59;18.90;99.90
17370;DHT22;8802;52.402;4.920;2023-05-10T10:00:27;18.90;99.90
17370;DHT22;8802;52.402;4.920;2023-05-10T10:02:55;19.00;99.90
17370;DHT22;8802;52.402;4.920;2023-05-10T10:05:28;19.00;99.90
17370;DHT22;8802;52.402;4.920;2023-05-10T10:07:55;19.00;99.90
17370;DHT22;8802;52.402;4.920;2023-05-10T10:10:23;19.10;99.90
17370;DHT22;8802;52.402;4.920;2023-05-10T10:12:50;19.10;99.90
17370;DHT22;8802;52.402;4.920;2023-05-10T10:15:20;19.10;99.90
17370;DHT22;8802;52.402;4.920;2023-05-10T10:17:49;19.20;99.90
17370;DHT22;8802;52.402;4.920;2023-05-10T10:20:17;19.20;99.90
17370;DHT22;8802;52.402;4.920;2023-05-10T10:22:44;19.30;99.90
17370;DHT22;8802;52.402;4.920;2023-05-10T10:25:12;19.30;99.90
17370;DHT22;8802;52.402;4.920;2023-05-10T10:27:45;19.30;99.90
17370;DHT22;8802;52.402;4.920;2023-05-10T10:30:22;19.30;99.90
17370;DHT22;8802;52.402;4.920;2023-05-10T10:36:05;19.40;99.90
17370;DHT22;8802;52.402;4.920;2023-05-10T10:38:54;19.40;99.90
17370;DHT22;8802;52.402;4.920;2023-05-10T10:41:29;19.40;99.90
17370;DHT22;8802;52.402;4.920;2023-05-10T10:44:25;19.40;99.90
17370;DHT22;8802;52.402;4.920;2023-05-10T10:46:59;19.40;99.90
17370;DHT22;8802;52.402;4.920;2023-05-10T10:49:27;19.50;99.90
17370;DHT22;8802;52.402;4.920;2023-05-10T10:52:14;19.50;99.90
17370;DHT22;8802;52.402;4.920;2023-05-10T10:54:41;19.40;99.90
17370;DHT22;8802;52.402;4.920;2023-05-10T10:57:14;19.50;99.90
17370;DHT22;8802;52.402;4.920;2023-05-10T10:59:44;19.50;99.90
17370;DHT22;8802;52.402;4.920;2023-05-10T11:02:32;19.40;99.90
17370;DHT22;8802;52.402;4.920;2023-05-10T11:08:18;19.40;99.90
17370;DHT22;8802;52.402;4.920;2023-05-10T11:11:02;19.40;99.90
17370;DHT22;8802;52.402;4.920;2023-05-10T11:13:31;19.40;99.90
17370;DHT22;8802;52.402;4.920;2023-05-10T11:15:59;19.30;99.90
17370;DHT22;8802;52.402;4.920;2023-05-10T11:18:36;19.30;99.90
17370;DHT22;8802;52.402;4.920;2023-05-10T11:21:07;19.30;99.90
17370;DHT22;8802;52.402;4.920;2023-05-10T11:23:49;19.30;99.90
17370;DHT22;8802;52.402;4.920;2023-05-10T11:26:16;19.20;99.90
17370;DHT22;8802;52.402;4.920;2023-05-10T11:28:44;19.20;99.90
17370;DHT22;8802;52.402;4.920;2023-05-10T11:31:13;19.10;99.90
17370;DHT22;8802;52.402;4.920;2023-05-10T11:33:42;19.10;99.90
17370;DHT22;8802;52.402;4.920;2023-05-10T11:36:13;19.10;99.90
17370;DHT22;8802;52.402;4.920;2023-05-10T11:38:40;19.10;99.90
17370;DHT22;8802;52.402;4.920;2023-05-10T11:41:08;19.10;99.90
17370;DHT22;8802;52.402;4.920;2023-05-10T11:43:38;19.10;99.90
17370;DHT22;8802;52.402;4.920;2023-05-10T11:46:05;19.10;99.90
17370;DHT22;8802;52.402;4.920;2023-05-10T11:48:32;19.10;99.90
17370;DHT22;8802;52.402;4.920;2023-05-10T11:51:00;19.10;99.90
17370;DHT22;8802;52.402;4.920;2023-05-10T11:53:30;19.20;99.90
17370;DHT22;8802;52.402;4.920;2023-05-10T11:56:03;19.20;99.90
17370;DHT22;8802;52.402;4.920;2023-05-10T11:58:30;19.20;99.90
17370;DHT22;8802;52.402;4.920;2023-05-10T12:00:58;19.30;99.90
17370;DHT22;8802;52.402;4.920;2023-05-10T12:03:25;19.30;99.90
17370;DHT22;8802;52.402;4.920;2023-05-10T12:05:52;19.40;99.90
17370;DHT22;8802;52.402;4.920;2023-05-10T12:08:21;19.40;99.90
17370;DHT22;8802;52.402;4.920;2023-05-10T12:10:50;19.50;99.90
17370;DHT22;8802;52.402;4.920;2023-05-10T12:13:17;19.50;99.90
17370;DHT22;8802;52.402;4.920;2023-05-10T12:15:44;19.60;99.90
17370;DHT22;8802;52.402;4.920;2023-05-10T12:18:11;19.70;99.90
17370;DHT22;8802;52.402;4.920;2023-05-10T12:20:39;19.70;99.90
17370;DHT22;8802;52.402;4.920;2023-05-10T12:23:08;19.80;99.90
17370;DHT22;8802;52.402;4.920;2023-05-10T12:25:36;19.80;99.90
17370;DHT22;8802;52.402;4.920;2023-05-10T12:28:08;19.90;99.90
17370;DHT22;8802;52.402;4.920;2023-05-10T12:30:36;20.00;99.90
17370;DHT22;8802;52.402;4.920;2023-05-10T12:33:08;20.00;99.90
17370;DHT22;8802;52.402;4.920;2023-05-10T12:35:44;20.10;99.90
17370;DHT22;8802;52.402;4.920;2023-05-10T12:38:28;20.10;99.90
17370;DHT22;8802;52.402;4.920;2023-05-10T12:40:56;20.10;99.90
17370;DHT22;8802;52.402;4.920;2023-05-10T12:43:25;20.20;99.90
17370;DHT22;8802;52.402;4.920;2023-05-10T12:45:51;20.20;99.90
17370;DHT22;8802;52.402;4.920;2023-05-10T12:48:19;20.30;99.90
17370;DHT22;8802;52.402;4.920;2023-05-10T12:50:46;20.30;99.90
17370;DHT22;8802;52.402;4.920;2023-05-10T12:53:13;20.40;99.90
17370;DHT22;8802;52.402;4.920;2023-05-10T12:55:40;20.50;99.90
17370;DHT22;8802;52.402;4.920;2023-05-10T12:58:07;20.50;99.90
17370;DHT22;8802;52.402;4.920;2023-05-10T13:00:36;20.60;99.90
17370;DHT22;8802;52.402;4.920;2023-05-10T13:03:03;20.70;99.90
17370;DHT22;8802;52.402;4.920;2023-05-10T13:05:31;20.80;99.90
17370;DHT22;8802;52.402;4.920;2023-05-10T13:07:57;20.90;99.50
17370;DHT22;8802;52.402;4.920;2023-05-10T13:10:24;20.90;99.50
17370;DHT22;8802;52.402;4.920;2023-05-10T13:12:51;21.00;99.30
17370;DHT22;8802;52.402;4.920;2023-05-10T13:15:18;21.00;99.10
17370;DHT22;8802;52.402;4.920;2023-05-10T13:17:46;21.10;99.20
17370;DHT22;8802;52.402;4.920;2023-05-10T13:20:13;21.10;99.40
17370;DHT22;8802;52.402;4.920;2023-05-10T13:22:40;21.10;99.40
17370;DHT22;8802;52.402;4.920;2023-05-10T13:25:08;21.10;99.10
17370;DHT22;8802;52.402;4.920;2023-05-10T13:27:35;21.10;99.20
17370;DHT22;8802;52.402;4.920;2023-05-10T13:30:02;21.10;99.00
17370;DHT22;8802;52.402;4.920;2023-05-10T13:32:29;21.20;99.10
17370;DHT22;8802;52.402;4.920;2023-05-10T13:34:58;21.20;98.70
17370;DHT22;8802;52.402;4.920;2023-05-10T13:37:24;21.10;99.10
17370;DHT22;8802;52.402;4.920;2023-05-10T13:39:51;21.20;98.90
17370;DHT22;8802;52.402;4.920;2023-05-10T13:42:18;21.20;98.70
17370;DHT22;8802;52.402;4.920;2023-05-10T13:44:45;21.20;98.90
17370;DHT22;8802;52.402;4.920;2023-05-10T13:47:12;21.20;98.90
17370;DHT22;8802;52.402;4.920;2023-05-10T13:49:39;21.20;99.10
17370;DHT22;8802;52.402;4.920;2023-05-10T13:52:07;21.20;99.10
17370;DHT22;8802;52.402;4.920;2023-05-10T13:54:35;21.20;98.30
17370;DHT22;8802;52.402;4.920;2023-05-10T13:57:02;21.20;98.50
17370;DHT22;8802;52.402;4.920;2023-05-10T13:59:30;21.20;98.80
17370;DHT22;8802;52.402;4.920;2023-05-10T14:01:57;21.20;98.50
17370;DHT22;8802;52.402;4.920;2023-05-10T14:04:24;21.20;98.50
17370;DHT22;8802;52.402;4.920;2023-05-10T14:06:51;21.20;98.60
17370;DHT22;8802;52.402;4.920;2023-05-10T14:09:20;21.20;98.70
17370;DHT22;8802;52.402;4.920;2023-05-10T14:11:47;21.20;98.80
17370;DHT22;8802;52.402;4.920;2023-05-10T14:14:14;21.20;98.70
17370;DHT22;8802;52.402;4.920;2023-05-10T14:16:42;21.10;99.00
17370;DHT22;8802;52.402;4.920;2023-05-10T14:19:09;21.10;98.50
17370;DHT22;8802;52.402;4.920;2023-05-10T14:21:36;21.10;98.30
17370;DHT22;8802;52.402;4.920;2023-05-10T14:24:04;21.10;98.40
17370;DHT22;8802;52.402;4.920;2023-05-10T14:26:33;21.10;98.70
17370;DHT22;8802;52.402;4.920;2023-05-10T14:29:00;21.10;97.80
17370;DHT22;8802;52.402;4.920;2023-05-10T14:31:27;21.10;97.90
17370;DHT22;8802;52.402;4.920;2023-05-10T14:33:55;21.10;98.20
17370;DHT22;8802;52.402;4.920;2023-05-10T14:36:22;21.10;98.10
17370;DHT22;8802;52.402;4.920;2023-05-10T14:38:49;21.10;98.00
17370;DHT22;8802;52.402;4.920;2023-05-10T14:41:17;21.10;98.30
17370;DHT22;8802;52.402;4.920;2023-05-10T14:43:46;21.20;98.50
17370;DHT22;8802;52.402;4.920;2023-05-10T14:46:13;21.20;98.10
17370;DHT22;8802;52.402;4.920;2023-05-10T14:48:39;21.20;97.90
17370;DHT22;8802;52.402;4.920;2023-05-10T14:51:06;21.20;97.50
17370;DHT22;8802;52.402;4.920;2023-05-10T14:53:33;21.20;97.30
17370;DHT22;8802;52.402;4.920;2023-05-10T14:56:00;21.20;97.50
17370;DHT22;8802;52.402;4.920;2023-05-10T14:58:28;21.20;97.90
17370;DHT22;8802;52.402;4.920;2023-05-10T15:00:57;21.20;98.00
17370;DHT22;8802;52.402;4.920;2023-05-10T15:03:23;21.20;98.10
17370;DHT22;8802;52.402;4.920;2023-05-10T15:05:50;21.20;97.30
17370;DHT22;8802;52.402;4.920;2023-05-10T15:08:18;21.20;97.80
17370;DHT22;8802;52.402;4.920;2023-05-10T15:10:45;21.20;97.80
17370;DHT22;8802;52.402;4.920;2023-05-10T15:13:13;21.10;97.20
17370;DHT22;8802;52.402;4.920;2023-05-10T15:15:39;21.10;97.30
17370;DHT22;8802;52.402;4.920;2023-05-10T15:18:08;21.10;97.80
17370;DHT22;8802;52.402;4.920;2023-05-10T15:20:35;21.10;97.90
17370;DHT22;8802;52.402;4.920;2023-05-10T15:23:02;21.10;97.90
17370;DHT22;8802;52.402;4.920;2023-05-10T15:25:29;21.10;98.00
17370;DHT22;8802;52.402;4.920;2023-05-10T15:27:56;21.10;97.90
17370;DHT22;8802;52.402;4.920;2023-05-10T15:30:23;21.00;97.80
17370;DHT22;8802;52.402;4.920;2023-05-10T15:32:50;21.00;97.60
17370;DHT22;8802;52.402;4.920;2023-05-10T15:35:18;21.00;97.30
17370;DHT22;8802;52.402;4.920;2023-05-10T15:37:47;21.00;96.90
17370;DHT22;8802;52.402;4.920;2023-05-10T15:40:14;21.00;97.10
17370;DHT22;8802;52.402;4.920;2023-05-10T15:42:41;21.00;97.00
17370;DHT22;8802;52.402;4.920;2023-05-10T15:45:09;20.90;97.20
17370;DHT22;8802;52.402;4.920;2023-05-10T15:47:36;20.90;97.40
17370;DHT22;8802;52.402;4.920;2023-05-10T15:50:05;20.90;97.10
17370;DHT22;8802;52.402;4.920;2023-05-10T15:52:33;20.80;97.10
17370;DHT22;8802;52.402;4.920;2023-05-10T15:55:00;20.80;96.50
17370;DHT22;8802;52.402;4.920;2023-05-10T15:57:28;20.80;96.90
17370;DHT22;8802;52.402;4.920;2023-05-10T15:59:54;20.70;96.90
17370;DHT22;8802;52.402;4.920;2023-05-10T16:02:22;20.70;97.00